Greenville, Alabama
Current Conditions -  °F | °C
As of 3:56 AM on Sunday 26 Oct 2014 (Local Time) from KPRN Reporting Station
Clear Clear  
Wind Chill: 55°   Ceiling: Unl
Heat Index: 55°   Visibility: 10mi
Dew Point: 51°   Wind: 3mph
Humidity: 86%   Direction: 350°N
Pressure: 30.01"   Gusts: NA
Location:  31.83°N, 86.63°W
Report Text: KPRN 260856Z AUTO 35003KT 10SM CLR 13/11 A3001 RMK AO2 SLP158 T01280106 58010
Loading
Personal Weather Stations






























Interactive Weather Map
Tropical Storm Tracking
New forecast layout! Learn more

10-Day Weather Forecast

Advertisements
Track Severe Weather on mobile